createdAt,value
2018-05-31T00:01:17.164Z,8.90
2018-05-31T00:03:44.724Z,8.60
2018-05-31T00:06:12.287Z,7.90
2018-05-31T00:08:39.994Z,8.20
2018-05-31T00:11:07.574Z,8.23
2018-05-31T00:13:35.298Z,7.77
2018-05-31T00:16:03.215Z,7.73
2018-05-31T00:18:30.805Z,7.97
2018-05-31T00:20:58.419Z,8.37
2018-05-31T00:23:25.947Z,7.63
2018-05-31T00:25:53.548Z,7.47
2018-05-31T00:28:21.214Z,7.37
2018-05-31T00:30:48.844Z,7.57
2018-05-31T00:33:16.366Z,7.00
2018-05-31T00:35:43.897Z,7.03
2018-05-31T00:38:11.436Z,7.80
2018-05-31T00:40:38.980Z,7.47
2018-05-31T00:43:06.559Z,7.60
2018-05-31T00:45:34.092Z,8.00
2018-05-31T00:48:01.623Z,8.07
2018-05-31T00:50:29.259Z,7.47
2018-05-31T00:52:56.913Z,7.80
2018-05-31T00:55:36.448Z,7.63
2018-05-31T00:58:03.984Z,7.60
2018-05-31T01:00:31.574Z,7.43
2018-05-31T01:02:59.233Z,7.37
2018-05-31T01:05:26.756Z,7.27
2018-05-31T01:07:54.287Z,7.40
2018-05-31T01:10:21.844Z,7.57
2018-05-31T01:12:49.481Z,7.30
2018-05-31T01:15:17.029Z,7.40
2018-05-31T01:17:44.568Z,7.43
2018-05-31T01:20:12.156Z,7.17
2018-05-31T01:22:39.675Z,7.83
2018-05-31T01:25:07.277Z,7.60
2018-05-31T01:27:34.807Z,7.07
2018-05-31T01:30:02.336Z,7.47
2018-05-31T01:32:29.879Z,6.53
2018-05-31T01:34:57.403Z,7.10
2018-05-31T01:37:24.944Z,7.03
2018-05-31T01:39:52.533Z,7.53
2018-05-31T01:42:20.085Z,6.83
2018-05-31T01:44:47.643Z,7.50
2018-05-31T01:47:15.218Z,7.70
2018-05-31T01:49:42.764Z,7.57
2018-05-31T01:52:10.310Z,7.93
2018-05-31T01:54:37.884Z,7.17
2018-05-31T01:57:05.425Z,6.93
2018-05-31T01:59:33.012Z,7.10
2018-05-31T02:02:00.578Z,7.90
2018-05-31T02:04:28.119Z,7.70
2018-05-31T02:06:55.663Z,7.63
2018-05-31T02:09:23.260Z,7.50
2018-05-31T02:11:50.804Z,8.07
2018-05-31T02:14:18.345Z,8.10
2018-05-31T02:16:45.937Z,8.27
2018-05-31T02:19:13.480Z,8.03
2018-05-31T02:21:41.052Z,8.33
2018-05-31T02:24:08.579Z,7.73
2018-05-31T02:26:36.173Z,8.40
2018-05-31T02:29:03.704Z,8.70
2018-05-31T02:31:31.234Z,8.67
2018-05-31T02:33:58.856Z,8.40
2018-05-31T02:36:26.388Z,8.03
2018-05-31T02:38:53.923Z,8.40
2018-05-31T02:41:21.537Z,8.00
2018-05-31T02:43:49.067Z,7.97
2018-05-31T02:46:16.657Z,8.57
2018-05-31T02:48:44.186Z,9.27
2018-05-31T02:51:11.710Z,8.70
2018-05-31T02:53:39.282Z,8.93
2018-05-31T02:56:06.833Z,8.70
2018-05-31T02:58:34.457Z,8.23
2018-05-31T03:01:01.984Z,9.03
2018-05-31T03:03:29.512Z,8.90
2018-05-31T03:05:57.066Z,8.70
2018-05-31T03:08:24.693Z,8.90
2018-05-31T03:10:52.433Z,8.37
2018-05-31T03:13:19.993Z,8.73
2018-05-31T03:15:47.583Z,8.57
2018-05-31T03:18:15.144Z,8.87
2018-05-31T03:20:42.703Z,9.20
2018-05-31T03:23:10.353Z,9.30
2018-05-31T03:25:37.891Z,9.40
2018-05-31T03:28:05.428Z,8.77
2018-05-31T03:30:33.031Z,9.43
2018-05-31T03:33:00.571Z,9.40
2018-05-31T03:35:28.197Z,9.67
2018-05-31T03:37:55.764Z,9.73
2018-05-31T03:40:23.329Z,9.93
2018-05-31T03:42:50.945Z,9.77
2018-05-31T03:45:18.511Z,9.27
2018-05-31T03:47:46.049Z,9.40
2018-05-31T03:50:13.596Z,9.73
2018-05-31T03:52:41.152Z,9.40
2018-05-31T03:55:08.748Z,10.10
2018-05-31T03:57:36.412Z,9.40
2018-05-31T04:00:04.071Z,10.13
2018-05-31T04:02:31.734Z,10.27
2018-05-31T04:04:59.397Z,10.23
2018-05-31T04:07:26.970Z,9.43
2018-05-31T04:09:54.619Z,10.37
2018-05-31T04:12:22.276Z,9.73
2018-05-31T04:14:50.627Z,9.83
2018-05-31T04:17:18.188Z,10.00
2018-05-31T04:19:45.743Z,10.20
2018-05-31T04:22:13.300Z,9.93
2018-05-31T04:24:40.901Z,10.27
2018-05-31T04:27:08.444Z,10.60
2018-05-31T04:29:36.026Z,10.43
2018-05-31T04:32:03.622Z,10.67
2018-05-31T04:34:31.213Z,9.80
2018-05-31T04:36:58.757Z,9.67
2018-05-31T04:39:26.364Z,11.13
2018-05-31T04:41:54.027Z,10.23
2018-05-31T04:44:21.687Z,10.23
2018-05-31T04:46:49.335Z,10.60
2018-05-31T04:49:16.884Z,10.60
2018-05-31T04:51:44.435Z,10.53
2018-05-31T04:54:11.977Z,10.87
2018-05-31T04:56:39.524Z,11.37
2018-05-31T04:59:07.149Z,11.03
2018-05-31T05:01:34.828Z,10.90
2018-05-31T05:04:02.373Z,11.07
2018-05-31T05:06:29.916Z,11.40
2018-05-31T05:08:57.596Z,11.57
2018-05-31T05:11:25.264Z,11.20
2018-05-31T05:13:52.936Z,11.43
2018-05-31T05:16:20.481Z,10.27
2018-05-31T05:18:48.041Z,10.57
2018-05-31T05:21:15.690Z,10.40
2018-05-31T05:23:43.248Z,10.77
2018-05-31T05:26:10.828Z,10.60
2018-05-31T05:28:38.401Z,10.53
2018-05-31T05:31:05.943Z,9.50
2018-05-31T05:33:33.591Z,10.73
2018-05-31T05:36:01.165Z,10.77
2018-05-31T05:38:28.826Z,10.30
2018-05-31T05:40:56.387Z,11.73
2018-05-31T05:43:23.923Z,11.20
2018-05-31T05:45:51.473Z,11.13
2018-05-31T05:48:19.032Z,10.27
2018-05-31T05:50:46.591Z,10.87
2018-05-31T05:53:14.128Z,11.90
2018-05-31T05:55:41.721Z,11.13
2018-05-31T05:58:09.307Z,10.93
2018-05-31T06:00:36.867Z,9.67
2018-05-31T06:03:04.530Z,10.60
2018-05-31T06:05:32.193Z,10.23
2018-05-31T06:07:59.869Z,9.77
2018-05-31T06:10:27.421Z,9.53
2018-05-31T06:12:55.043Z,10.63
2018-05-31T06:15:22.585Z,9.17
2018-05-31T06:17:50.129Z,9.50
2018-05-31T06:20:17.689Z,9.53
2018-05-31T06:22:45.239Z,9.37
2018-05-31T06:25:12.807Z,9.07
2018-05-31T06:27:40.423Z,9.20
2018-05-31T06:30:07.964Z,8.23
2018-05-31T06:32:35.557Z,8.63
2018-05-31T06:35:03.222Z,8.20
2018-05-31T06:37:30.744Z,8.43
2018-05-31T06:39:58.277Z,8.20
2018-05-31T06:42:25.893Z,7.93
2018-05-31T06:44:53.414Z,7.50
2018-05-31T06:47:20.968Z,7.70
2018-05-31T06:49:48.508Z,7.40
2018-05-31T06:52:16.149Z,7.00
2018-05-31T06:54:43.805Z,6.87
2018-05-31T06:57:11.329Z,6.35
2018-05-31T06:59:38.916Z,6.70
2018-05-31T07:02:06.451Z,6.80
2018-05-31T07:04:33.983Z,6.00
2018-05-31T07:07:01.524Z,5.85
2018-05-31T07:09:29.057Z,5.93
2018-05-31T07:11:56.575Z,5.15
2018-05-31T07:14:24.177Z,4.72
2018-05-31T07:16:51.735Z,4.95
2018-05-31T07:19:19.265Z,4.50
2018-05-31T07:21:46.819Z,4.50
2018-05-31T07:24:14.376Z,5.00
2018-05-31T07:26:41.986Z,4.93
2018-05-31T07:29:09.547Z,4.78
2018-05-31T07:31:37.196Z,4.30
2018-05-31T07:34:04.733Z,4.03
2018-05-31T07:36:32.251Z,4.70
2018-05-31T07:38:59.867Z,3.92
2018-05-31T07:41:27.397Z,4.45
2018-05-31T07:43:54.927Z,4.22
2018-05-31T07:46:22.547Z,4.37
2018-05-31T07:48:50.122Z,4.40
2018-05-31T07:51:17.643Z,4.25
2018-05-31T07:53:45.185Z,4.40
2018-05-31T07:56:12.802Z,4.60
2018-05-31T07:58:40.327Z,4.50
2018-05-31T08:01:07.916Z,4.57
2018-05-31T08:03:35.452Z,4.47
2018-05-31T08:06:02.968Z,4.85
2018-05-31T08:08:30.601Z,4.40
2018-05-31T08:10:58.125Z,4.75
2018-05-31T08:13:25.679Z,4.28
2018-05-31T08:15:53.280Z,4.10
2018-05-31T08:18:20.807Z,4.28
2018-05-31T08:20:48.328Z,4.50
2018-05-31T08:23:15.857Z,4.57
2018-05-31T08:25:43.384Z,4.37
2018-05-31T08:28:10.926Z,4.10
2018-05-31T08:30:38.492Z,4.00
2018-05-31T08:33:06.022Z,4.32
2018-05-31T08:35:33.658Z,4.28
2018-05-31T08:38:01.220Z,4.40
2018-05-31T08:40:28.777Z,4.85
2018-05-31T08:42:56.373Z,4.57
2018-05-31T08:45:23.955Z,4.20
2018-05-31T08:47:51.562Z,4.35
2018-05-31T08:50:19.232Z,4.32
2018-05-31T08:52:46.764Z,4.55
2018-05-31T08:55:14.308Z,4.25
2018-05-31T08:57:41.833Z,4.00
2018-05-31T09:00:09.404Z,4.47
2018-05-31T09:02:37.004Z,4.25
2018-05-31T09:05:04.558Z,5.70
2018-05-31T09:07:32.109Z,6.20
2018-05-31T09:09:59.653Z,4.53
2018-05-31T09:12:27.186Z,6.00
2018-05-31T09:14:54.728Z,7.93
2018-05-31T09:17:22.366Z,5.00
2018-05-31T09:19:49.896Z,4.82
2018-05-31T09:22:17.526Z,4.65
2018-05-31T09:24:45.061Z,4.95
2018-05-31T09:27:12.585Z,4.50
2018-05-31T09:29:40.135Z,4.80
2018-05-31T09:32:07.740Z,4.78
2018-05-31T09:34:35.270Z,4.75
2018-05-31T09:37:02.799Z,4.45
2018-05-31T09:39:30.319Z,4.70
2018-05-31T09:41:57.832Z,4.10
2018-05-31T09:44:25.393Z,4.45
2018-05-31T09:46:52.918Z,4.40
2018-05-31T09:49:20.560Z,4.32
2018-05-31T09:51:48.084Z,4.43
2018-05-31T09:54:15.643Z,4.18
2018-05-31T09:56:43.236Z,4.62
2018-05-31T09:59:10.820Z,4.70
2018-05-31T10:01:38.356Z,5.00
2018-05-31T10:04:05.872Z,4.62
2018-05-31T10:06:33.477Z,4.55
2018-05-31T10:09:01.033Z,4.50
2018-05-31T10:11:28.567Z,4.75
2018-05-31T10:13:56.081Z,4.60
2018-05-31T10:16:23.716Z,4.70
2018-05-31T10:18:51.232Z,5.07
2018-05-31T10:21:18.790Z,4.57
2018-05-31T10:23:46.316Z,4.80
2018-05-31T10:26:13.853Z,4.60
2018-05-31T10:28:41.413Z,5.20
2018-05-31T10:31:08.939Z,4.62
2018-05-31T10:33:36.477Z,4.93
2018-05-31T10:36:04.096Z,4.60
2018-05-31T10:38:31.624Z,4.82
2018-05-31T10:40:59.147Z,4.68
2018-05-31T10:43:26.711Z,5.30
2018-05-31T10:45:54.289Z,5.00
2018-05-31T10:48:21.893Z,5.10
2018-05-31T10:50:49.448Z,5.12
2018-05-31T10:53:16.969Z,5.28
2018-05-31T10:55:44.511Z,5.25
2018-05-31T10:58:12.131Z,5.55
2018-05-31T11:00:39.656Z,6.75
2018-05-31T11:03:07.181Z,5.53
2018-05-31T11:05:34.808Z,5.15
2018-05-31T11:08:02.336Z,6.35
2018-05-31T11:10:29.884Z,6.05
2018-05-31T11:12:57.440Z,6.50
2018-05-31T11:15:24.997Z,6.03
2018-05-31T11:17:52.596Z,5.90
2018-05-31T11:20:20.128Z,5.60
2018-05-31T11:22:47.656Z,5.70
2018-05-31T11:25:15.293Z,6.23
2018-05-31T11:27:42.851Z,5.30
2018-05-31T11:30:10.394Z,6.13
2018-05-31T11:32:37.928Z,5.97
2018-05-31T11:35:05.533Z,5.30
2018-05-31T11:37:33.092Z,5.10
2018-05-31T11:40:00.647Z,6.03
2018-05-31T11:42:28.182Z,5.80
2018-05-31T11:44:55.704Z,6.03
2018-05-31T11:47:23.230Z,5.40
2018-05-31T11:49:50.744Z,6.00
2018-05-31T11:52:18.283Z,6.17
2018-05-31T11:54:45.849Z,5.70
2018-05-31T11:57:13.397Z,5.70
2018-05-31T11:59:40.923Z,5.77
2018-05-31T12:02:08.486Z,6.07
2018-05-31T12:04:36.041Z,5.70
2018-05-31T12:07:03.555Z,6.00
2018-05-31T12:09:31.092Z,6.53
2018-05-31T12:11:58.621Z,6.07
2018-05-31T12:14:26.623Z,6.20
2018-05-31T12:16:54.187Z,5.97
2018-05-31T12:19:21.707Z,6.13
2018-05-31T12:21:49.236Z,6.07
2018-05-31T12:24:16.763Z,6.37
2018-05-31T12:26:44.288Z,6.40
2018-05-31T12:29:11.847Z,6.23
2018-05-31T12:31:39.409Z,6.23
2018-05-31T12:34:06.976Z,6.17
2018-05-31T12:36:34.480Z,6.17
2018-05-31T12:39:02.025Z,6.40
2018-05-31T12:41:29.542Z,7.13
2018-05-31T12:43:57.075Z,7.00
2018-05-31T12:46:24.609Z,6.77
2018-05-31T12:48:52.145Z,7.30
2018-05-31T12:51:19.780Z,6.53
2018-05-31T12:53:47.371Z,6.63
2018-05-31T12:56:14.915Z,6.57
2018-05-31T12:58:42.466Z,7.33
2018-05-31T13:01:09.988Z,6.93
2018-05-31T13:03:37.558Z,7.53
2018-05-31T13:06:05.165Z,7.77
2018-05-31T13:08:32.648Z,7.00
2018-05-31T13:11:00.199Z,6.97
2018-05-31T13:13:27.811Z,7.13
2018-05-31T13:15:55.352Z,7.20
2018-05-31T13:18:22.893Z,6.93
2018-05-31T13:20:50.521Z,7.13
2018-05-31T13:23:18.053Z,7.17
2018-05-31T13:25:45.618Z,7.57
2018-05-31T13:28:13.179Z,6.90
2018-05-31T13:30:40.740Z,7.03
2018-05-31T13:33:08.308Z,7.37
2018-05-31T13:35:35.858Z,7.47
2018-05-31T13:38:03.418Z,7.20
2018-05-31T13:40:30.944Z,7.33
2018-05-31T13:42:58.480Z,7.37
2018-05-31T13:45:26.028Z,7.00
2018-05-31T13:47:53.583Z,6.70
2018-05-31T13:50:21.121Z,6.73
2018-05-31T13:52:48.676Z,7.63
2018-05-31T13:55:16.208Z,7.43
2018-05-31T13:57:43.731Z,7.43
2018-05-31T14:00:11.249Z,6.97
2018-05-31T14:02:38.788Z,6.60
2018-05-31T14:05:06.309Z,7.63
2018-05-31T14:07:33.869Z,7.00
2018-05-31T14:10:01.397Z,6.50
2018-05-31T14:12:28.911Z,7.07
2018-05-31T14:14:56.515Z,6.80
2018-05-31T14:17:24.076Z,7.40
2018-05-31T14:19:51.620Z,7.33
2018-05-31T14:22:19.131Z,6.77
2018-05-31T14:24:46.739Z,6.97
2018-05-31T14:27:14.276Z,7.57
2018-05-31T14:29:41.799Z,7.33
2018-05-31T14:32:09.438Z,7.30
2018-05-31T14:34:36.965Z,7.33
2018-05-31T14:37:04.485Z,7.20
2018-05-31T14:39:32.005Z,7.77
2018-05-31T14:41:59.573Z,7.30
2018-05-31T14:44:27.097Z,6.97
2018-05-31T14:46:54.696Z,8.13
2018-05-31T14:49:22.207Z,7.37
2018-05-31T14:51:49.748Z,7.33
2018-05-31T14:54:17.378Z,7.33
2018-05-31T14:56:44.948Z,7.40
2018-05-31T14:59:12.462Z,7.27
2018-05-31T15:01:40.049Z,7.20
2018-05-31T15:04:07.646Z,7.10
2018-05-31T15:06:35.157Z,7.07
2018-05-31T15:09:02.704Z,7.37
2018-05-31T15:11:30.228Z,7.53
2018-05-31T15:13:57.752Z,7.03
2018-05-31T15:16:25.279Z,7.70
2018-05-31T15:18:52.863Z,6.60
2018-05-31T15:21:20.385Z,7.37
2018-05-31T15:23:48.036Z,6.73
2018-05-31T15:26:15.645Z,6.90
2018-05-31T15:28:43.176Z,7.10
2018-05-31T15:31:10.766Z,7.27
2018-05-31T15:33:38.335Z,7.43
2018-05-31T15:36:05.898Z,7.57
2018-05-31T15:38:33.453Z,7.43
2018-05-31T15:41:01.012Z,7.73
2018-05-31T15:43:28.542Z,7.40
2018-05-31T15:45:56.116Z,6.87
2018-05-31T15:48:23.639Z,7.23
2018-05-31T15:50:51.184Z,7.33
2018-05-31T15:53:18.708Z,7.33
2018-05-31T15:55:46.234Z,8.00
2018-05-31T15:58:13.765Z,7.33
2018-05-31T16:00:41.326Z,7.43
2018-05-31T16:03:08.961Z,7.17
2018-05-31T16:05:36.505Z,7.50
2018-05-31T16:08:04.032Z,8.20
2018-05-31T16:10:31.623Z,7.87
2018-05-31T16:12:59.152Z,7.73
2018-05-31T16:15:26.750Z,7.80
2018-05-31T16:17:54.296Z,8.40
2018-05-31T16:20:21.821Z,8.27
2018-05-31T16:22:49.364Z,8.47
2018-05-31T16:25:16.986Z,8.13
2018-05-31T16:27:44.515Z,7.93
2018-05-31T16:30:12.039Z,9.17
2018-05-31T16:32:39.572Z,8.60
2018-05-31T16:35:07.272Z,9.37
2018-05-31T16:37:34.786Z,8.70
2018-05-31T16:40:02.346Z,8.80
2018-05-31T16:42:29.906Z,8.87
2018-05-31T16:44:57.476Z,8.80
2018-05-31T16:47:25.127Z,8.90
2018-05-31T16:49:52.657Z,8.70
2018-05-31T16:52:20.184Z,8.67
2018-05-31T16:54:47.805Z,8.63
2018-05-31T16:57:15.470Z,8.70
2018-05-31T16:59:43.028Z,8.50
2018-05-31T17:02:10.557Z,8.30
2018-05-31T17:04:38.190Z,9.10
2018-05-31T17:07:05.825Z,11.00
2018-05-31T17:09:33.469Z,10.10
2018-05-31T17:12:00.988Z,9.07
2018-05-31T17:14:28.836Z,9.10
2018-05-31T17:16:56.448Z,9.03
2018-05-31T17:19:24.030Z,8.90
2018-05-31T17:21:51.572Z,9.33
2018-05-31T17:24:19.127Z,9.47
2018-05-31T17:26:46.718Z,8.77
2018-05-31T17:29:14.315Z,9.60
2018-05-31T17:31:42.137Z,9.30
2018-05-31T17:34:09.672Z,9.23
2018-05-31T17:36:37.337Z,8.73
2018-05-31T17:39:05.835Z,8.50
2018-05-31T17:41:33.372Z,9.23
2018-05-31T17:44:00.888Z,9.20
2018-05-31T17:46:28.487Z,8.80
2018-05-31T17:48:56.065Z,8.83
2018-05-31T17:51:23.583Z,8.50
2018-05-31T17:53:51.157Z,8.37
2018-05-31T17:56:18.725Z,8.60
2018-05-31T17:58:46.532Z,8.67
2018-05-31T18:01:14.177Z,8.13
2018-05-31T18:03:41.707Z,7.97
2018-05-31T18:06:09.237Z,8.17
2018-05-31T18:08:36.762Z,8.23
2018-05-31T18:11:04.415Z,7.47
2018-05-31T18:13:31.944Z,7.60
2018-05-31T18:15:59.492Z,7.43
2018-05-31T18:18:27.033Z,6.70
2018-05-31T18:20:54.659Z,6.90
2018-05-31T18:23:22.179Z,6.63
2018-05-31T18:25:49.705Z,6.53
2018-05-31T18:28:17.245Z,6.80
2018-05-31T18:30:44.895Z,6.60
2018-05-31T18:33:12.403Z,7.40
2018-05-31T18:35:40.015Z,7.50
2018-05-31T18:38:07.560Z,7.00
2018-05-31T18:40:35.120Z,6.87
2018-05-31T18:43:02.647Z,7.10
2018-05-31T18:45:30.246Z,6.90
2018-05-31T18:47:57.815Z,6.57
2018-05-31T18:50:25.339Z,7.03
2018-05-31T18:52:52.965Z,6.77
2018-05-31T18:55:20.586Z,6.60
2018-05-31T18:57:48.164Z,6.73
2018-05-31T19:00:15.683Z,7.20
2018-05-31T19:02:43.283Z,7.40
2018-05-31T19:05:10.947Z,7.90
2018-05-31T19:07:38.476Z,6.57
2018-05-31T19:10:05.993Z,6.97
2018-05-31T19:12:39.061Z,7.60
2018-05-31T19:15:06.726Z,7.30
2018-05-31T19:17:34.275Z,6.97
2018-05-31T19:20:01.812Z,6.93
2018-05-31T19:22:29.342Z,7.20
2018-05-31T19:25:02.592Z,7.13
2018-05-31T19:27:30.124Z,6.83
2018-05-31T19:30:03.236Z,6.97
2018-05-31T19:32:30.801Z,7.50
2018-05-31T19:34:58.355Z,6.80
2018-05-31T19:37:25.879Z,6.33
2018-05-31T19:39:53.401Z,8.20
2018-05-31T19:42:26.490Z,7.10
2018-05-31T19:44:54.011Z,6.53
2018-05-31T19:47:21.566Z,7.37
2018-05-31T19:49:49.085Z,7.10
2018-05-31T19:52:22.221Z,6.70
2018-05-31T19:54:49.751Z,7.00
2018-05-31T19:57:17.284Z,7.00
2018-05-31T19:59:50.473Z,6.80
2018-05-31T20:02:23.555Z,6.70
2018-05-31T20:04:51.090Z,6.43
2018-05-31T20:07:18.672Z,6.63
2018-05-31T20:09:46.209Z,6.73
2018-05-31T20:12:13.727Z,7.00
2018-05-31T20:14:41.329Z,6.83
2018-05-31T20:17:08.866Z,6.47
2018-05-31T20:19:36.385Z,6.73
2018-05-31T20:22:03.915Z,6.73
2018-05-31T20:24:31.435Z,6.40
2018-05-31T20:26:59.027Z,6.60
2018-05-31T20:29:26.552Z,6.23
2018-05-31T20:31:54.148Z,6.30
2018-05-31T20:34:21.676Z,6.43
2018-05-31T20:36:49.197Z,6.67
2018-05-31T20:39:16.778Z,6.67
2018-05-31T20:41:44.385Z,6.67
2018-05-31T20:44:11.919Z,6.17
2018-05-31T20:46:39.431Z,6.53
2018-05-31T20:49:06.964Z,6.37
2018-05-31T20:51:34.493Z,6.57
2018-05-31T20:54:02.019Z,6.97
2018-05-31T20:56:29.555Z,6.63
2018-05-31T20:58:57.143Z,6.73
2018-05-31T21:01:24.760Z,6.60
2018-05-31T21:03:52.336Z,6.57
2018-05-31T21:06:19.872Z,6.20
2018-05-31T21:08:47.399Z,6.20
2018-05-31T21:11:14.942Z,6.30
2018-05-31T21:13:42.593Z,6.90
2018-05-31T21:16:10.127Z,6.57
2018-05-31T21:18:37.787Z,6.40
2018-05-31T21:21:05.329Z,6.53
2018-05-31T21:23:32.902Z,7.00
2018-05-31T21:26:00.545Z,6.37
2018-05-31T21:28:28.083Z,6.63
2018-05-31T21:30:55.644Z,6.77
2018-05-31T21:33:23.163Z,6.30
2018-05-31T21:35:50.680Z,6.73
2018-05-31T21:38:18.195Z,6.53
2018-05-31T21:40:45.803Z,6.80
2018-05-31T21:43:13.333Z,6.93
2018-05-31T21:45:40.939Z,6.83
2018-05-31T21:48:08.474Z,6.73
2018-05-31T21:50:36.061Z,6.43
2018-05-31T21:53:03.619Z,6.90
2018-05-31T21:55:31.180Z,7.07
2018-05-31T21:57:58.776Z,7.10
2018-05-31T22:00:30.830Z,6.43
2018-05-31T22:02:58.466Z,6.67
2018-05-31T22:05:25.997Z,6.73
2018-05-31T22:07:53.512Z,6.40
2018-05-31T22:10:21.117Z,6.20
2018-05-31T22:12:48.725Z,6.73
2018-05-31T22:15:16.250Z,6.83
2018-05-31T22:17:43.780Z,7.13
2018-05-31T22:20:11.385Z,6.43
2018-05-31T22:22:38.916Z,7.07
2018-05-31T22:25:06.445Z,7.20
2018-05-31T22:27:33.995Z,6.43
2018-05-31T22:30:01.528Z,7.87
2018-05-31T22:32:29.082Z,6.93
2018-05-31T22:34:56.642Z,7.20
2018-05-31T22:37:24.202Z,7.40
2018-05-31T22:39:51.765Z,6.90
2018-05-31T22:42:19.290Z,6.73
2018-05-31T22:44:46.822Z,6.97
2018-05-31T22:47:14.349Z,6.83
2018-05-31T22:49:41.914Z,7.33
2018-05-31T22:52:09.666Z,7.40
2018-05-31T22:54:37.191Z,6.97
2018-05-31T22:57:04.782Z,7.03
2018-05-31T22:59:32.347Z,7.63
2018-05-31T23:02:00.190Z,6.70
2018-05-31T23:04:27.872Z,7.00
2018-05-31T23:06:55.400Z,7.40
2018-05-31T23:09:22.992Z,7.50
2018-05-31T23:11:50.521Z,8.17
2018-05-31T23:14:18.212Z,7.27
2018-05-31T23:16:46.083Z,7.40
2018-05-31T23:19:13.637Z,7.00
2018-05-31T23:21:41.204Z,7.27
2018-05-31T23:24:08.800Z,7.40
2018-05-31T23:26:36.343Z,7.57
2018-05-31T23:29:03.983Z,6.93
2018-05-31T23:31:31.548Z,7.00
2018-05-31T23:33:59.228Z,7.63
2018-05-31T23:36:26.752Z,7.57
2018-05-31T23:38:54.324Z,7.50
2018-05-31T23:41:21.994Z,7.73
2018-05-31T23:43:49.644Z,7.40
2018-05-31T23:46:17.167Z,7.27
2018-05-31T23:48:44.762Z,7.37
2018-05-31T23:51:12.284Z,7.63
2018-05-31T23:53:39.807Z,7.77
2018-05-31T23:56:07.449Z,6.93
2018-05-31T23:58:35.011Z,7.27
